sensor_id;sensor_type;location;lat;lon;timestamp;pressure;altitude;pressure_sealevel;temperature;humidity
64200;BME280;50516;52.272;5.136;2023-04-28T00:01:15;101421.59;;;10.48;51.37
64200;BME280;50516;52.272;5.136;2023-04-28T00:03:40;101428.88;;;10.59;50.90
64200;BME280;50516;52.272;5.136;2023-04-28T00:06:06;101433.50;;;10.59;51.06
64200;BME280;50516;52.272;5.136;2023-04-28T00:08:31;101435.34;;;10.75;50.67
64200;BME280;50516;52.272;5.136;2023-04-28T00:10:57;101427.03;;;10.70;50.69
64200;BME280;50516;52.272;5.136;2023-04-28T00:13:22;101418.44;;;10.62;50.75
64200;BME280;50516;52.272;5.136;2023-04-28T00:15:52;101408.59;;;10.66;50.56
64200;BME280;50516;52.272;5.136;2023-04-28T00:18:20;101395.31;;;10.57;50.89
64200;BME280;50516;52.272;5.136;2023-04-28T00:20:46;101401.63;;;10.53;50.89
64200;BME280;50516;52.272;5.136;2023-04-28T00:23:12;101397.47;;;10.50;51.01
64200;BME280;50516;52.272;5.136;2023-04-28T00:25:37;101395.91;;;10.59;50.61
64200;BME280;50516;52.272;5.136;2023-04-28T00:28:03;101378.84;;;10.57;50.65
64200;BME280;50516;52.272;5.136;2023-04-28T00:30:29;101385.72;;;10.55;50.57
64200;BME280;50516;52.272;5.136;2023-04-28T00:32:54;101378.66;;;10.64;50.59
64200;BME280;50516;52.272;5.136;2023-04-28T00:35:20;101385.16;;;10.53;50.43
64200;BME280;50516;52.272;5.136;2023-04-28T00:37:45;101376.53;;;10.71;50.24
64200;BME280;50516;52.272;5.136;2023-04-28T00:40:11;101376.53;;;10.71;50.33
64200;BME280;50516;52.272;5.136;2023-04-28T00:42:36;101380.94;;;10.72;50.40
64200;BME280;50516;52.272;5.136;2023-04-28T00:45:02;101376.56;;;10.76;50.38
64200;BME280;50516;52.272;5.136;2023-04-28T00:47:33;101376.34;;;10.83;50.03
64200;BME280;50516;52.272;5.136;2023-04-28T00:50:05;101375.44;;;10.72;50.61
64200;BME280;50516;52.272;5.136;2023-04-28T00:52:31;101369.53;;;10.58;50.39
64200;BME280;50516;52.272;5.136;2023-04-28T00:54:56;101363.84;;;10.65;50.39
64200;BME280;50516;52.272;5.136;2023-04-28T00:57:22;101353.38;;;10.62;50.42
64200;BME280;50516;52.272;5.136;2023-04-28T00:59:47;101351.09;;;10.54;50.25
64200;BME280;50516;52.272;5.136;2023-04-28T01:02:13;101350.00;;;10.55;50.16
64200;BME280;50516;52.272;5.136;2023-04-28T01:04:42;101346.75;;;10.58;50.10
64200;BME280;50516;52.272;5.136;2023-04-28T01:07:08;101337.22;;;10.38;50.73
64200;BME280;50516;52.272;5.136;2023-04-28T01:09:34;101344.06;;;10.36;50.62
64200;BME280;50516;52.272;5.136;2023-04-28T01:11:59;101344.34;;;10.39;51.18
64200;BME280;50516;52.272;5.136;2023-04-28T01:14:25;101338.88;;;10.39;51.12
64200;BME280;50516;52.272;5.136;2023-04-28T01:16:50;101340.22;;;10.37;51.67
64200;BME280;50516;52.272;5.136;2023-04-28T01:19:20;101335.09;;;10.23;51.83
64200;BME280;50516;52.272;5.136;2023-04-28T01:21:46;101340.22;;;10.37;51.65
64200;BME280;50516;52.272;5.136;2023-04-28T01:24:12;101329.78;;;10.34;51.61
64200;BME280;50516;52.272;5.136;2023-04-28T01:26:37;101329.50;;;10.35;51.46
64200;BME280;50516;52.272;5.136;2023-04-28T01:29:02;101328.31;;;10.31;51.72
64200;BME280;50516;52.272;5.136;2023-04-28T01:31:28;101328.25;;;10.48;51.51
64200;BME280;50516;52.272;5.136;2023-04-28T01:33:55;101320.03;;;10.48;51.65
64200;BME280;50516;52.272;5.136;2023-04-28T01:36:20;101318.63;;;10.46;51.85
64200;BME280;50516;52.272;5.136;2023-04-28T01:38:48;101312.19;;;10.35;51.52
64200;BME280;50516;52.272;5.136;2023-04-28T01:41:13;101310.56;;;10.34;52.21
64200;BME280;50516;52.272;5.136;2023-04-28T01:43:38;101309.53;;;10.18;52.11
64200;BME280;50516;52.272;5.136;2023-04-28T01:46:04;101304.41;;;10.27;52.35
64200;BME280;50516;52.272;5.136;2023-04-28T01:48:29;101306.66;;;10.08;52.67
64200;BME280;50516;52.272;5.136;2023-04-28T01:50:55;101297.38;;;10.36;52.38
64200;BME280;50516;52.272;5.136;2023-04-28T01:53:20;101291.53;;;10.27;52.18
64200;BME280;50516;52.272;5.136;2023-04-28T01:55:46;101288.41;;;10.18;52.43
64200;BME280;50516;52.272;5.136;2023-04-28T01:58:11;101286.59;;;10.29;52.31
64200;BME280;50516;52.272;5.136;2023-04-28T02:00:37;101301.34;;;10.23;52.73
64200;BME280;50516;52.272;5.136;2023-04-28T02:03:02;101287.78;;;10.11;53.10
64200;BME280;50516;52.272;5.136;2023-04-28T02:05:27;101285.91;;;10.17;53.06
64200;BME280;50516;52.272;5.136;2023-04-28T02:07:53;101290.47;;;10.06;53.09
64200;BME280;50516;52.272;5.136;2023-04-28T02:10:18;101280.63;;;10.10;52.88
64200;BME280;50516;52.272;5.136;2023-04-28T02:12:44;101276.69;;;10.01;53.59
64200;BME280;50516;52.272;5.136;2023-04-28T02:15:09;101274.59;;;10.08;53.64
64200;BME280;50516;52.272;5.136;2023-04-28T02:17:35;101265.84;;;10.11;53.22
64200;BME280;50516;52.272;5.136;2023-04-28T02:20:00;101274.31;;;10.10;53.14
64200;BME280;50516;52.272;5.136;2023-04-28T02:22:25;101272.09;;;10.07;53.27
64200;BME280;50516;52.272;5.136;2023-04-28T02:24:51;101277.94;;;10.15;53.38
64200;BME280;50516;52.272;5.136;2023-04-28T02:27:22;101270.72;;;10.09;53.46
64200;BME280;50516;52.272;5.136;2023-04-28T02:29:48;101267.69;;;10.05;53.97
64200;BME280;50516;52.272;5.136;2023-04-28T02:32:13;101264.38;;;10.03;54.19
64200;BME280;50516;52.272;5.136;2023-04-28T02:34:38;101258.53;;;9.95;54.40
64200;BME280;50516;52.272;5.136;2023-04-28T02:37:04;101255.47;;;9.91;54.44
64200;BME280;50516;52.272;5.136;2023-04-28T02:39:38;101250.81;;;9.92;54.38
64200;BME280;50516;52.272;5.136;2023-04-28T02:42:04;101248.09;;;9.92;54.96
64200;BME280;50516;52.272;5.136;2023-04-28T02:44:32;101242.94;;;10.00;54.57
64200;BME280;50516;52.272;5.136;2023-04-28T02:47:00;101241.88;;;10.01;54.81
64200;BME280;50516;52.272;5.136;2023-04-28T02:49:29;101241.91;;;10.07;54.63
64200;BME280;50516;52.272;5.136;2023-04-28T02:51:55;101228.97;;;10.02;54.88
64200;BME280;50516;52.272;5.136;2023-04-28T02:54:20;101228.38;;;9.95;55.50
64200;BME280;50516;52.272;5.136;2023-04-28T02:56:55;101228.03;;;9.91;55.30
64200;BME280;50516;52.272;5.136;2023-04-28T02:59:21;101222.50;;;9.86;55.81
64200;BME280;50516;52.272;5.136;2023-04-28T03:01:49;101210.97;;;9.84;55.73
64200;BME280;50516;52.272;5.136;2023-04-28T03:04:16;101212.69;;;9.90;55.89
64200;BME280;50516;52.272;5.136;2023-04-28T03:06:41;101216.84;;;9.98;55.57
64200;BME280;50516;52.272;5.136;2023-04-28T03:09:08;101205.53;;;9.89;56.20
64200;BME280;50516;52.272;5.136;2023-04-28T03:11:34;101198.84;;;9.80;56.23
64200;BME280;50516;52.272;5.136;2023-04-28T03:13:59;101209.94;;;9.90;56.18
64200;BME280;50516;52.272;5.136;2023-04-28T03:16:25;101204.66;;;9.83;56.43
64200;BME280;50516;52.272;5.136;2023-04-28T03:18:50;101201.03;;;9.78;56.46
64200;BME280;50516;52.272;5.136;2023-04-28T03:21:16;101193.06;;;9.76;56.63
64200;BME280;50516;52.272;5.136;2023-04-28T03:23:41;101180.41;;;9.75;56.49
64200;BME280;50516;52.272;5.136;2023-04-28T03:26:07;101178.16;;;9.67;56.79
64200;BME280;50516;52.272;5.136;2023-04-28T03:28:39;101176.91;;;9.80;56.48
64200;BME280;50516;52.272;5.136;2023-04-28T03:31:04;101154.97;;;9.80;56.62
64200;BME280;50516;52.272;5.136;2023-04-28T03:33:30;101148.91;;;9.78;56.98
64200;BME280;50516;52.272;5.136;2023-04-28T03:35:58;101159.03;;;9.72;57.01
64200;BME280;50516;52.272;5.136;2023-04-28T03:38:23;101149.44;;;9.75;57.10
64200;BME280;50516;52.272;5.136;2023-04-28T03:40:49;101142.28;;;9.74;56.89
64200;BME280;50516;52.272;5.136;2023-04-28T03:43:17;101145.44;;;9.60;57.16
64200;BME280;50516;52.272;5.136;2023-04-28T03:45:45;101135.44;;;9.71;57.31
64200;BME280;50516;52.272;5.136;2023-04-28T03:48:11;101129.94;;;9.71;57.13
64200;BME280;50516;52.272;5.136;2023-04-28T03:50:36;101126.75;;;9.84;56.77
64200;BME280;50516;52.272;5.136;2023-04-28T03:53:07;101125.91;;;9.79;57.00
64200;BME280;50516;52.272;5.136;2023-04-28T03:55:33;101124.72;;;9.69;57.38
64200;BME280;50516;52.272;5.136;2023-04-28T03:58:06;101118.34;;;9.64;57.24
64200;BME280;50516;52.272;5.136;2023-04-28T04:00:31;101129.25;;;9.59;57.53
64200;BME280;50516;52.272;5.136;2023-04-28T04:02:56;101117.53;;;9.63;57.68
64200;BME280;50516;52.272;5.136;2023-04-28T04:05:22;101121.97;;;9.69;57.43
64200;BME280;50516;52.272;5.136;2023-04-28T04:07:47;101114.34;;;9.77;57.38
64200;BME280;50516;52.272;5.136;2023-04-28T04:10:13;101123.38;;;9.72;57.52
64200;BME280;50516;52.272;5.136;2023-04-28T04:12:38;101124.81;;;9.80;57.34
64200;BME280;50516;52.272;5.136;2023-04-28T04:15:04;101121.72;;;9.71;58.00
64200;BME280;50516;52.272;5.136;2023-04-28T04:17:29;101103.34;;;9.72;57.72
64200;BME280;50516;52.272;5.136;2023-04-28T04:19:55;101103.72;;;9.80;57.82
64200;BME280;50516;52.272;5.136;2023-04-28T04:22:20;101115.34;;;9.65;57.73
64200;BME280;50516;52.272;5.136;2023-04-28T04:24:46;101108.09;;;9.81;58.04
64200;BME280;50516;52.272;5.136;2023-04-28T04:27:11;101112.75;;;9.81;57.59
64200;BME280;50516;52.272;5.136;2023-04-28T04:29:36;101121.09;;;9.96;57.60
64200;BME280;50516;52.272;5.136;2023-04-28T04:32:02;101125.00;;;10.00;57.26
64200;BME280;50516;52.272;5.136;2023-04-28T04:34:28;101119.72;;;9.94;57.37
64200;BME280;50516;52.272;5.136;2023-04-28T04:36:53;101121.09;;;9.96;57.09
64200;BME280;50516;52.272;5.136;2023-04-28T04:39:18;101112.31;;;9.94;56.78
64200;BME280;50516;52.272;5.136;2023-04-28T04:41:43;101109.13;;;10.08;57.02
64200;BME280;50516;52.272;5.136;2023-04-28T04:44:09;101108.66;;;10.16;56.78
64200;BME280;50516;52.272;5.136;2023-04-28T04:46:34;101106.69;;;10.11;56.76
64200;BME280;50516;52.272;5.136;2023-04-28T04:49:00;101094.81;;;10.00;57.33
64200;BME280;50516;52.272;5.136;2023-04-28T04:51:25;101093.50;;;10.08;56.98
64200;BME280;50516;52.272;5.136;2023-04-28T04:53:52;101091.94;;;10.17;57.21
64200;BME280;50516;52.272;5.136;2023-04-28T04:56:17;101089.75;;;10.19;56.86
64200;BME280;50516;52.272;5.136;2023-04-28T04:58:43;101093.00;;;10.16;57.09
64200;BME280;50516;52.272;5.136;2023-04-28T05:01:11;101092.75;;;10.18;57.10
64200;BME280;50516;52.272;5.136;2023-04-28T05:03:36;101095.41;;;10.08;57.26
64200;BME280;50516;52.272;5.136;2023-04-28T05:06:01;101085.31;;;10.13;57.26
64200;BME280;50516;52.272;5.136;2023-04-28T05:08:28;101096.03;;;10.15;57.18
64200;BME280;50516;52.272;5.136;2023-04-28T05:10:53;101081.78;;;10.18;57.49
64200;BME280;50516;52.272;5.136;2023-04-28T05:13:18;101085.44;;;10.29;56.98
64200;BME280;50516;52.272;5.136;2023-04-28T05:15:44;101089.19;;;10.17;57.10
64200;BME280;50516;52.272;5.136;2023-04-28T05:18:09;101093.06;;;10.27;57.01
64200;BME280;50516;52.272;5.136;2023-04-28T05:20:35;101104.53;;;10.18;57.38
64200;BME280;50516;52.272;5.136;2023-04-28T05:23:01;101117.00;;;10.31;57.26
64200;BME280;50516;52.272;5.136;2023-04-28T05:25:27;101115.25;;;10.20;57.69
64200;BME280;50516;52.272;5.136;2023-04-28T05:27:52;101121.03;;;10.23;57.74
64200;BME280;50516;52.272;5.136;2023-04-28T05:30:17;101124.66;;;10.29;58.84
64200;BME280;50516;52.272;5.136;2023-04-28T05:32:43;101096.94;;;10.26;60.19
64200;BME280;50516;52.272;5.136;2023-04-28T05:35:08;101088.03;;;10.08;62.21
64200;BME280;50516;52.272;5.136;2023-04-28T05:37:34;101095.88;;;9.99;63.34
64200;BME280;50516;52.272;5.136;2023-04-28T05:39:59;101098.69;;;10.04;64.52
64200;BME280;50516;52.272;5.136;2023-04-28T05:42:25;101082.78;;;10.07;65.81
64200;BME280;50516;52.272;5.136;2023-04-28T05:44:50;101079.78;;;10.08;66.41
64200;BME280;50516;52.272;5.136;2023-04-28T05:47:15;101063.31;;;10.08;67.09
64200;BME280;50516;52.272;5.136;2023-04-28T05:49:41;101063.84;;;10.05;68.33
64200;BME280;50516;52.272;5.136;2023-04-28T05:52:06;101057.56;;;10.10;68.48
64200;BME280;50516;52.272;5.136;2023-04-28T05:54:31;101039.94;;;10.00;69.98
64200;BME280;50516;52.272;5.136;2023-04-28T05:56:58;101026.25;;;10.05;70.57
64200;BME280;50516;52.272;5.136;2023-04-28T05:59:24;101011.69;;;10.00;70.31
64200;BME280;50516;52.272;5.136;2023-04-28T06:01:49;101005.88;;;9.96;71.21
64200;BME280;50516;52.272;5.136;2023-04-28T06:04:15;100994.44;;;10.04;71.37
64200;BME280;50516;52.272;5.136;2023-04-28T06:06:40;101002.63;;;9.99;72.30
64200;BME280;50516;52.272;5.136;2023-04-28T06:09:06;100995.22;;;9.95;72.53
64200;BME280;50516;52.272;5.136;2023-04-28T06:11:31;100996.06;;;10.00;72.86
64200;BME280;50516;52.272;5.136;2023-04-28T06:13:56;101005.38;;;9.99;73.10
64200;BME280;50516;52.272;5.136;2023-04-28T06:16:22;101022.91;;;9.93;74.35
64200;BME280;50516;52.272;5.136;2023-04-28T06:18:48;101021.31;;;10.02;73.88
64200;BME280;50516;52.272;5.136;2023-04-28T06:21:13;101048.44;;;10.36;73.16
64200;BME280;50516;52.272;5.136;2023-04-28T06:23:39;101043.78;;;10.37;73.05
64200;BME280;50516;52.272;5.136;2023-04-28T06:26:07;101056.75;;;10.52;72.95
64200;BME280;50516;52.272;5.136;2023-04-28T06:28:32;101064.47;;;10.60;73.12
64200;BME280;50516;52.272;5.136;2023-04-28T06:30:58;101067.75;;;10.52;73.13
64200;BME280;50516;52.272;5.136;2023-04-28T06:33:24;101068.56;;;10.52;73.32
64200;BME280;50516;52.272;5.136;2023-04-28T06:35:49;101071.06;;;10.59;73.25
64200;BME280;50516;52.272;5.136;2023-04-28T06:38:15;101070.50;;;10.52;73.13
64200;BME280;50516;52.272;5.136;2023-04-28T06:40:42;101075.19;;;10.56;73.91
64200;BME280;50516;52.272;5.136;2023-04-28T06:43:12;101073.50;;;10.50;73.99
64200;BME280;50516;52.272;5.136;2023-04-28T06:45:37;101083.41;;;10.56;74.14
64200;BME280;50516;52.272;5.136;2023-04-28T06:48:03;101077.31;;;10.49;73.62
64200;BME280;50516;52.272;5.136;2023-04-28T06:50:29;101063.34;;;10.56;73.25
64200;BME280;50516;52.272;5.136;2023-04-28T06:52:54;101062.88;;;10.64;72.95
64200;BME280;50516;52.272;5.136;2023-04-28T06:55:19;101060.16;;;10.74;72.95
64200;BME280;50516;52.272;5.136;2023-04-28T06:57:45;101057.41;;;10.74;73.12
64200;BME280;50516;52.272;5.136;2023-04-28T07:00:12;101047.59;;;10.94;72.96
64200;BME280;50516;52.272;5.136;2023-04-28T07:02:37;101047.06;;;11.07;72.83
64200;BME280;50516;52.272;5.136;2023-04-28T07:05:03;101044.38;;;11.23;72.47
64200;BME280;50516;52.272;5.136;2023-04-28T07:07:29;101048.22;;;11.27;72.57
64200;BME280;50516;52.272;5.136;2023-04-28T07:09:54;101045.50;;;11.37;72.01
64200;BME280;50516;52.272;5.136;2023-04-28T07:12:23;101046.88;;;11.35;72.03
64200;BME280;50516;52.272;5.136;2023-04-28T07:14:48;101051.00;;;11.42;72.55
64200;BME280;50516;52.272;5.136;2023-04-28T07:17:15;101049.38;;;11.57;72.27
64200;BME280;50516;52.272;5.136;2023-04-28T07:19:40;101041.13;;;11.62;72.13
64200;BME280;50516;52.272;5.136;2023-04-28T07:22:06;101041.38;;;11.65;72.40
64200;BME280;50516;52.272;5.136;2023-04-28T07:24:31;101037.28;;;11.68;72.30
64200;BME280;50516;52.272;5.136;2023-04-28T07:26:56;101048.25;;;11.83;72.45
64200;BME280;50516;52.272;5.136;2023-04-28T07:29:22;101038.94;;;11.74;73.48
64200;BME280;50516;52.272;5.136;2023-04-28T07:31:48;101029.56;;;11.85;73.60
64200;BME280;50516;52.272;5.136;2023-04-28T07:34:14;101026.00;;;11.95;73.48
64200;BME280;50516;52.272;5.136;2023-04-28T07:36:40;101033.41;;;12.10;73.75
64200;BME280;50516;52.272;5.136;2023-04-28T07:39:05;101030.13;;;11.98;74.20
64200;BME280;50516;52.272;5.136;2023-04-28T07:41:38;101032.59;;;11.99;74.73
64200;BME280;50516;52.272;5.136;2023-04-28T07:44:06;101029.56;;;12.01;75.55
64200;BME280;50516;52.272;5.136;2023-04-28T07:46:34;101033.38;;;12.26;74.26
64200;BME280;50516;52.272;5.136;2023-04-28T07:49:00;101023.47;;;12.30;74.48
64200;BME280;50516;52.272;5.136;2023-04-28T07:51:26;101023.47;;;12.30;74.48
64200;BME280;50516;52.272;5.136;2023-04-28T07:53:51;101015.19;;;12.30;75.15
64200;BME280;50516;52.272;5.136;2023-04-28T07:56:17;101022.88;;;12.43;74.82
64200;BME280;50516;52.272;5.136;2023-04-28T07:58:42;101017.91;;;12.40;75.65
64200;BME280;50516;52.272;5.136;2023-04-28T08:01:08;101027.81;;;12.46;75.98
64200;BME280;50516;52.272;5.136;2023-04-28T08:03:33;101014.59;;;12.43;75.96
64200;BME280;50516;52.272;5.136;2023-04-28T08:05:59;101009.59;;;12.55;75.59
64200;BME280;50516;52.272;5.136;2023-04-28T08:08:25;101015.06;;;12.66;75.27
64200;BME280;50516;52.272;5.136;2023-04-28T08:10:50;101013.66;;;12.73;75.28
64200;BME280;50516;52.272;5.136;2023-04-28T08:13:16;101018.84;;;12.80;74.79
64200;BME280;50516;52.272;5.136;2023-04-28T08:15:41;101033.19;;;12.77;75.74
64200;BME280;50516;52.272;5.136;2023-04-28T08:18:07;101025.28;;;12.65;76.44
64200;BME280;50516;52.272;5.136;2023-04-28T08:20:33;101031.88;;;12.64;76.63
64200;BME280;50516;52.272;5.136;2023-04-28T08:22:58;101021.44;;;12.56;77.12
64200;BME280;50516;52.272;5.136;2023-04-28T08:25:24;101031.38;;;12.52;77.92
64200;BME280;50516;52.272;5.136;2023-04-28T08:27:50;101035.50;;;12.54;78.08
64200;BME280;50516;52.272;5.136;2023-04-28T08:30:15;101030.53;;;12.62;77.96
64200;BME280;50516;52.272;5.136;2023-04-28T08:32:40;101024.19;;;12.56;78.25
64200;BME280;50516;52.272;5.136;2023-04-28T08:35:06;101028.59;;;12.57;78.88
64200;BME280;50516;52.272;5.136;2023-04-28T08:37:32;101018.94;;;12.65;79.21
64200;BME280;50516;52.272;5.136;2023-04-28T08:39:57;101025.50;;;12.79;78.71
64200;BME280;50516;52.272;5.136;2023-04-28T08:42:34;101021.50;;;13.01;78.47
64200;BME280;50516;52.272;5.136;2023-04-28T08:45:00;101013.78;;;13.03;79.68
64200;BME280;50516;52.272;5.136;2023-04-28T08:47:34;101010.41;;;13.11;79.85
64200;BME280;50516;52.272;5.136;2023-04-28T08:50:04;101005.31;;;13.39;78.94
64200;BME280;50516;52.272;5.136;2023-04-28T08:52:30;101008.44;;;13.61;78.51
64200;BME280;50516;52.272;5.136;2023-04-28T08:54:58;101006.13;;;13.74;78.38
64200;BME280;50516;52.272;5.136;2023-04-28T08:57:26;101010.13;;;13.57;79.54
64200;BME280;50516;52.272;5.136;2023-04-28T08:59:52;101005.00;;;13.40;81.38
64200;BME280;50516;52.272;5.136;2023-04-28T09:02:18;101005.88;;;13.36;82.00
64200;BME280;50516;52.272;5.136;2023-04-28T09:04:47;101006.47;;;13.32;82.37
64200;BME280;50516;52.272;5.136;2023-04-28T09:07:13;101018.41;;;13.12;83.56
64200;BME280;50516;52.272;5.136;2023-04-28T09:09:39;101010.41;;;13.16;83.89
64200;BME280;50516;52.272;5.136;2023-04-28T09:12:06;101001.28;;;13.15;84.20
64200;BME280;50516;52.272;5.136;2023-04-28T09:14:33;101001.78;;;13.28;84.40
64200;BME280;50516;52.272;5.136;2023-04-28T09:16:59;101003.41;;;13.34;85.02
64200;BME280;50516;52.272;5.136;2023-04-28T09:19:35;100999.31;;;13.26;85.86
64200;BME280;50516;52.272;5.136;2023-04-28T09:22:01;101003.16;;;13.25;86.39
64200;BME280;50516;52.272;5.136;2023-04-28T09:24:31;101001.38;;;13.50;86.46
64200;BME280;50516;52.272;5.136;2023-04-28T09:26:58;101000.69;;;13.63;86.10
64200;BME280;50516;52.272;5.136;2023-04-28T09:29:23;100995.13;;;13.68;86.60
64200;BME280;50516;52.272;5.136;2023-04-28T09:31:49;100996.53;;;13.66;86.85
64200;BME280;50516;52.272;5.136;2023-04-28T09:34:14;100994.44;;;13.82;86.80
64200;BME280;50516;52.272;5.136;2023-04-28T09:36:40;100991.63;;;13.92;86.71
64200;BME280;50516;52.272;5.136;2023-04-28T09:39:06;100986.56;;;13.99;86.98
64200;BME280;50516;52.272;5.136;2023-04-28T09:44:18;100990.41;;;13.98;88.31
64200;BME280;50516;52.272;5.136;2023-04-28T09:46:46;100988.50;;;13.99;88.48
64200;BME280;50516;52.272;5.136;2023-04-28T09:49:12;100992.22;;;14.13;88.16
64200;BME280;50516;52.272;5.136;2023-04-28T09:51:38;100989.28;;;14.29;87.59
64200;BME280;50516;52.272;5.136;2023-04-28T09:54:04;100982.16;;;14.22;88.32
64200;BME280;50516;52.272;5.136;2023-04-28T09:56:30;100979.09;;;14.24;89.11
64200;BME280;50516;52.272;5.136;2023-04-28T09:58:57;100989.44;;;13.89;91.06
64200;BME280;50516;52.272;5.136;2023-04-28T10:01:32;100988.28;;;13.90;91.86
64200;BME280;50516;52.272;5.136;2023-04-28T10:03:59;100985.19;;;13.97;91.91
64200;BME280;50516;52.272;5.136;2023-04-28T10:06:26;100984.78;;;13.84;92.48
64200;BME280;50516;52.272;5.136;2023-04-28T10:08:54;100977.84;;;13.87;92.89
64200;BME280;50516;52.272;5.136;2023-04-28T10:11:22;100982.09;;;14.03;92.20
64200;BME280;50516;52.272;5.136;2023-04-28T10:13:49;100987.88;;;14.07;92.39
64200;BME280;50516;52.272;5.136;2023-04-28T10:16:15;100982.13;;;13.98;93.94
64200;BME280;50516;52.272;5.136;2023-04-28T10:18:41;100983.22;;;14.02;93.59
64200;BME280;50516;52.272;5.136;2023-04-28T10:21:08;100973.47;;;14.10;93.38
64200;BME280;50516;52.272;5.136;2023-04-28T10:24:14;100980.59;;;14.40;91.92
64200;BME280;50516;52.272;5.136;2023-04-28T10:27:03;100975.66;;;14.56;91.63
64200;BME280;50516;52.272;5.136;2023-04-28T10:29:31;100986.13;;;14.40;91.89
64200;BME280;50516;52.272;5.136;2023-04-28T10:32:22;100977.41;;;14.28;93.15
64200;BME280;50516;52.272;5.136;2023-04-28T10:34:50;100977.81;;;14.40;93.10
64200;BME280;50516;52.272;5.136;2023-04-28T10:37:16;100987.34;;;14.53;92.57
64200;BME280;50516;52.272;5.136;2023-04-28T10:42:54;100980.34;;;14.61;93.38
64200;BME280;50516;52.272;5.136;2023-04-28T10:48:13;100983.50;;;14.73;93.52
64200;BME280;50516;52.272;5.136;2023-04-28T10:56:24;100986.94;;;14.65;94.59
64200;BME280;50516;52.272;5.136;2023-04-28T10:58:54;100983.00;;;14.71;94.75
64200;BME280;50516;52.272;5.136;2023-04-28T11:06:24;100977.09;;;14.78;94.48
64200;BME280;50516;52.272;5.136;2023-04-28T11:16:47;100967.97;;;14.77;95.35
64200;BME280;50516;52.272;5.136;2023-04-28T11:19:17;100962.22;;;14.93;95.24
64200;BME280;50516;52.272;5.136;2023-04-28T11:21:44;100962.44;;;15.15;94.60
64200;BME280;50516;52.272;5.136;2023-04-28T11:24:11;100954.66;;;15.18;94.08
64200;BME280;50516;52.272;5.136;2023-04-28T11:26:37;100953.84;;;14.98;94.93
64200;BME280;50516;52.272;5.136;2023-04-28T11:29:03;100959.03;;;14.86;96.01
64200;BME280;50516;52.272;5.136;2023-04-28T11:31:28;100966.19;;;14.87;96.04
64200;BME280;50516;52.272;5.136;2023-04-28T11:34:02;100968.41;;;14.66;96.44
64200;BME280;50516;52.272;5.136;2023-04-28T11:36:37;100968.75;;;14.59;97.28
64200;BME280;50516;52.272;5.136;2023-04-28T11:39:04;100969.28;;;14.61;97.65
64200;BME280;50516;52.272;5.136;2023-04-28T11:41:31;100964.69;;;14.51;97.66
64200;BME280;50516;52.272;5.136;2023-04-28T11:43:58;100972.63;;;14.58;98.10
64200;BME280;50516;52.272;5.136;2023-04-28T11:46:24;100967.53;;;14.70;97.82
64200;BME280;50516;52.272;5.136;2023-04-28T11:49:17;100960.50;;;14.78;97.68
64200;BME280;50516;52.272;5.136;2023-04-28T11:51:42;100971.28;;;14.79;97.03
64200;BME280;50516;52.272;5.136;2023-04-28T11:54:11;100968.03;;;14.72;97.24
64200;BME280;50516;52.272;5.136;2023-04-28T11:56:41;100969.91;;;14.77;97.81
64200;BME280;50516;52.272;5.136;2023-04-28T11:59:10;100966.78;;;14.84;98.03
64200;BME280;50516;52.272;5.136;2023-04-28T12:01:50;100963.28;;;14.78;98.07
64200;BME280;50516;52.272;5.136;2023-04-28T12:07:11;100973.94;;;15.23;97.97
64200;BME280;50516;52.272;5.136;2023-04-28T12:09:41;100970.91;;;15.05;97.60
64200;BME280;50516;52.272;5.136;2023-04-28T12:12:27;100979.16;;;15.24;96.57
64200;BME280;50516;52.272;5.136;2023-04-28T12:14:54;100985.25;;;15.26;97.36
64200;BME280;50516;52.272;5.136;2023-04-28T12:17:27;100984.94;;;15.09;97.87
64200;BME280;50516;52.272;5.136;2023-04-28T12:19:54;100976.47;;;15.00;97.82
64200;BME280;50516;52.272;5.136;2023-04-28T12:22:20;100982.56;;;15.02;97.99
64200;BME280;50516;52.272;5.136;2023-04-28T12:24:45;100981.41;;;15.03;98.13
64200;BME280;50516;52.272;5.136;2023-04-28T12:27:15;100986.00;;;14.94;98.85
64200;BME280;50516;52.272;5.136;2023-04-28T12:29:43;100986.88;;;14.89;98.59
64200;BME280;50516;52.272;5.136;2023-04-28T12:32:10;100977.38;;;14.76;98.66
64200;BME280;50516;52.272;5.136;2023-04-28T12:34:37;100977.38;;;14.76;98.59
64200;BME280;50516;52.272;5.136;2023-04-28T12:37:04;100983.59;;;14.68;99.47
64200;BME280;50516;52.272;5.136;2023-04-28T12:39:34;100987.97;;;14.69;99.59
64200;BME280;50516;52.272;5.136;2023-04-28T12:42:01;100987.00;;;14.79;99.26
64200;BME280;50516;52.272;5.136;2023-04-28T12:44:35;100985.69;;;14.95;98.84
64200;BME280;50516;52.272;5.136;2023-04-28T12:47:07;100985.31;;;15.02;97.99
64200;BME280;50516;52.272;5.136;2023-04-28T12:49:36;100976.22;;;14.83;98.91
64200;BME280;50516;52.272;5.136;2023-04-28T12:52:03;100985.09;;;14.99;99.28
64200;BME280;50516;52.272;5.136;2023-04-28T12:54:29;100978.59;;;15.08;97.81
64200;BME280;50516;52.272;5.136;2023-04-28T12:56:54;100982.34;;;14.99;97.54
64200;BME280;50516;52.272;5.136;2023-04-28T12:59:20;100993.06;;;15.00;98.06
64200;BME280;50516;52.272;5.136;2023-04-28T13:01:46;100991.38;;;15.04;98.02
64200;BME280;50516;52.272;5.136;2023-04-28T13:04:12;100990.47;;;14.90;98.20
64200;BME280;50516;52.272;5.136;2023-04-28T13:06:38;101000.19;;;14.87;98.19
64200;BME280;50516;52.272;5.136;2023-04-28T13:09:04;100990.53;;;14.85;99.07
64200;BME280;50516;52.272;5.136;2023-04-28T13:11:30;100996.16;;;14.79;98.54
64200;BME280;50516;52.272;5.136;2023-04-28T13:13:56;101003.53;;;14.65;100.00
64200;BME280;50516;52.272;5.136;2023-04-28T13:16:22;100994.56;;;14.73;100.00
64200;BME280;50516;52.272;5.136;2023-04-28T13:18:49;101008.31;;;14.78;99.48
64200;BME280;50516;52.272;5.136;2023-04-28T13:21:15;101008.25;;;14.84;99.09